Time;durP1;ratioP1;P1;durP2;ratioP2;P2;SDS_P1;SDS_P2;PMS_P1;PMS_P2;Temp;Humidity;BMP_temperature;BMP_pressure;BME280_temperature;BME280_humidity;BME280_pressure;Samples;Min_cycle;Max_cycle;Signal;HPM_P1;HPM_P2
2024/01/14 00:00:33;;;;;;;1.83;1.73;;;;;;;-22.86;68.20;98882.53;4852508;29;20084;-77
2024/01/14 00:03:01;;;;;;;1.87;1.77;;;;;;;-22.90;68.14;98867.31;4856624;29;20380;-77
2024/01/14 00:05:28;;;;;;;1.95;1.85;;;;;;;-22.97;68.14;98864.91;4850815;29;20050;-78
2024/01/14 00:07:56;;;;;;;1.70;1.60;;;;;;;-23.08;68.31;98851.59;4843510;29;20056;-77
2024/01/14 00:10:32;;;;;;;1.80;1.70;;;;;;;-23.07;68.91;98849.88;4854009;29;20048;-77
2024/01/14 00:13:00;;;;;;;2.13;2.03;;;;;;;-23.01;68.77;98847.16;4879610;29;20056;-77
2024/01/14 00:15:27;;;;;;;1.70;1.60;;;;;;;-22.99;68.82;98842.84;4879774;29;20060;-77
2024/01/14 00:17:54;;;;;;;1.85;1.75;;;;;;;-22.99;69.13;98835.16;4879667;29;20120;-77
2024/01/14 00:20:22;;;;;;;1.70;1.60;;;;;;;-22.97;69.04;98831.69;4895824;29;20127;-78
2024/01/14 00:22:49;;;;;;;1.88;1.77;;;;;;;-22.96;69.17;98822.28;4896647;29;20053;-78
2024/01/14 00:25:19;;;;;;;1.73;1.63;;;;;;;-22.94;68.99;98817.97;4896499;29;20053;-78
2024/01/14 00:27:47;;;;;;;1.70;1.60;;;;;;;-22.93;68.85;98823.91;4881603;29;20060;-79
2024/01/14 00:30:18;;;;;;;1.88;1.77;;;;;;;-22.93;69.12;98804.31;4880527;29;20096;-79
2024/01/14 00:32:45;;;;;;;1.70;1.60;;;;;;;-22.95;69.04;98798.41;4897234;29;20049;-79
2024/01/14 00:35:13;;;;;;;1.75;1.65;;;;;;;-22.90;69.27;98799.09;4880876;29;20157;-78
2024/01/14 00:37:41;;;;;;;1.80;1.70;;;;;;;-22.94;68.96;98794.13;4880501;29;20618;-78
2024/01/14 00:40:11;;;;;;;1.70;1.60;;;;;;;-22.95;68.96;98810.34;4880498;29;20052;-78
2024/01/14 00:42:38;;;;;;;1.70;1.60;;;;;;;-22.98;69.22;98798.53;4858994;29;20516;-78
2024/01/14 00:45:06;;;;;;;1.70;1.60;;;;;;;-23.00;69.10;98803.66;4858794;29;20065;-79
2024/01/14 00:47:34;;;;;;;1.80;1.70;;;;;;;-23.07;69.22;98791.09;4858790;29;20049;-78
2024/01/14 00:50:01;;;;;;;2.03;1.92;;;;;;;-23.08;69.25;98795.38;4858604;29;20174;-78
2024/01/14 00:52:34;;;;;;;1.70;1.60;;;;;;;-23.10;69.37;98792.00;4858654;29;20107;-78
2024/01/14 00:55:14;;;;;;;1.80;1.70;;;;;;;-23.11;69.44;98794.59;4826170;29;20057;-79
2024/01/14 00:57:43;;;;;;;1.77;1.67;;;;;;;-23.11;69.49;98794.59;4843956;29;20061;-78
2024/01/14 01:00:12;;;;;;;1.77;1.67;;;;;;;-23.11;69.77;98789.47;4859061;29;20049;-79
2024/01/14 01:02:42;;;;;;;1.85;1.75;;;;;;;-23.10;69.99;98786.91;4896882;29;20155;-79
2024/01/14 01:05:10;;;;;;;1.80;1.70;;;;;;;-23.10;70.02;98781.78;4897463;29;20120;-79
2024/01/14 01:07:37;;;;;;;1.70;1.60;;;;;;;-23.08;70.04;98795.38;4895971;29;20151;-78
2024/01/14 01:10:06;;;;;;;1.70;1.60;;;;;;;-23.09;70.14;98786.00;4864795;29;20061;-79
2024/01/14 01:12:34;;;;;;;1.80;1.70;;;;;;;-23.09;70.34;98782.63;4895592;29;20056;-79
2024/01/14 01:15:03;;;;;;;1.90;1.80;;;;;;;-23.10;70.56;98776.69;4879999;29;20621;-78
2024/01/14 01:17:31;;;;;;;1.83;1.73;;;;;;;-23.08;70.55;98776.66;4880753;29;20053;-78
2024/01/14 01:19:59;;;;;;;2.03;1.92;;;;;;;-23.10;70.73;98765.63;4896127;29;20056;-78
2024/01/14 01:22:28;;;;;;;1.90;1.80;;;;;;;-23.14;70.69;98758.91;4880602;29;20052;-78
2024/01/14 01:24:55;;;;;;;2.00;1.90;;;;;;;-23.09;70.94;98755.34;4880014;29;20056;-78
2024/01/14 01:27:23;;;;;;;1.90;1.80;;;;;;;-23.11;71.07;98758.81;4895680;29;20119;-78
2024/01/14 01:29:50;;;;;;;1.88;1.77;;;;;;;-23.17;71.25;98752.16;4895194;29;20087;-78
2024/01/14 01:32:17;;;;;;;1.90;1.80;;;;;;;-23.20;71.41;98753.09;4894974;29;20139;-78
2024/01/14 01:34:47;;;;;;;1.90;1.80;;;;;;;-23.16;71.64;98753.00;4879749;29;20147;-78
2024/01/14 01:37:17;;;;;;;1.80;1.70;;;;;;;-23.17;71.75;98738.56;4895183;29;20086;-78
2024/01/14 01:39:44;;;;;;;1.90;1.80;;;;;;;-23.19;71.93;98738.59;4879858;29;20084;-78
2024/01/14 01:42:13;;;;;;;1.70;1.60;;;;;;;-23.24;72.09;98733.63;4894155;29;20060;-78
2024/01/14 01:44:42;;;;;;;2.00;1.90;;;;;;;-23.24;72.15;98736.19;4849042;29;20056;-78
2024/01/14 01:47:09;;;;;;;1.90;1.80;;;;;;;-23.27;72.45;98731.13;4894981;29;20056;-78
2024/01/14 01:49:40;;;;;;;1.80;1.70;;;;;;;-23.27;72.61;98731.13;4864101;29;20061;-78
2024/01/14 01:52:13;;;;;;;2.00;1.90;;;;;;;-23.29;72.89;98725.25;4861203;29;20136;-78
2024/01/14 01:54:41;;;;;;;1.90;1.80;;;;;;;-23.28;73.23;98726.09;4860746;29;20140;-78
2024/01/14 01:57:10;;;;;;;1.90;1.80;;;;;;;-23.31;73.21;98710.84;4875748;29;20435;-78
2024/01/14 01:59:39;;;;;;;1.90;1.80;;;;;;;-23.27;73.64;98707.31;4851173;29;20050;-78
2024/01/14 02:02:07;;;;;;;1.80;1.70;;;;;;;-23.33;73.74;98705.75;4842248;29;20054;-78
2024/01/14 02:04:35;;;;;;;1.80;1.70;;;;;;;-23.31;73.89;98708.28;4842477;29;20145;-78
2024/01/14 02:07:02;;;;;;;1.90;1.80;;;;;;;-23.30;74.27;98702.28;4857037;29;20069;-78
2024/01/14 02:09:30;;;;;;;2.00;1.90;;;;;;;-23.34;74.63;98683.66;4841787;29;20472;-78
2024/01/14 02:11:58;;;;;;;1.80;1.70;;;;;;;-23.27;74.63;98697.91;4857018;29;20080;-78
2024/01/14 02:14:26;;;;;;;1.80;1.70;;;;;;;-23.23;74.93;98696.97;4857321;29;20475;-78
2024/01/14 02:16:55;;;;;;;2.00;1.90;;;;;;;-23.17;75.23;98684.91;4857277;29;20045;-79
2024/01/14 02:19:32;;;;;;;1.83;1.73;;;;;;;-23.14;75.42;98675.41;4841877;29;20507;-79
2024/01/14 02:22:08;;;;;;;2.00;1.90;;;;;;;-23.17;75.53;98674.69;4841985;29;20570;-79
2024/01/14 02:24:36;;;;;;;1.83;1.73;;;;;;;-23.17;75.79;98669.56;4859046;29;20107;-78
2024/01/14 02:27:04;;;;;;;1.90;1.80;;;;;;;-23.17;76.01;98667.00;4860343;29;20098;-78
2024/01/14 02:29:31;;;;;;;1.88;1.77;;;;;;;-23.15;76.34;98662.69;4858711;29;20080;-78
2024/01/14 02:31:59;;;;;;;2.00;1.90;;;;;;;-23.15;76.44;98655.03;4859663;29;20057;-79
2024/01/14 02:34:26;;;;;;;1.80;1.70;;;;;;;-23.11;76.78;98651.47;4859572;29;20061;-78
2024/01/14 02:36:54;;;;;;;1.95;1.85;;;;;;;-23.05;77.16;98647.03;4893910;29;20137;-78
2024/01/14 02:39:45;;;;;;;1.90;1.80;;;;;;;-23.02;77.44;98630.78;4878627;29;20083;-78
2024/01/14 02:42:29;;;;;;;1.95;1.85;;;;;;;-22.95;77.92;98626.31;4866545;29;20049;-78
2024/01/14 02:44:57;;;;;;;1.80;1.70;;;;;;;-22.95;77.95;98614.34;4878606;29;20048;-78
2024/01/14 02:47:31;;;;;;;1.90;1.80;;;;;;;-22.95;78.38;98629.69;4860680;29;20147;-78
2024/01/14 02:50:00;;;;;;;2.00;1.90;;;;;;;-22.91;78.76;98618.47;4875520;29;20560;-78
2024/01/14 02:52:30;;;;;;;1.90;1.80;;;;;;;-22.93;78.93;98607.47;4860035;29;20061;-79
2024/01/14 02:54:57;;;;;;;1.90;1.80;;;;;;;-22.88;79.36;98607.31;4874992;29;20140;-78
2024/01/14 02:57:25;;;;;;;1.80;1.70;;;;;;;-22.83;79.80;98598.66;4874985;29;20076;-77
2024/01/14 02:59:52;;;;;;;2.10;2.00;;;;;;;-22.79;80.06;98589.97;4875095;29;20137;-78
2024/01/14 03:02:20;;;;;;;1.90;1.80;;;;;;;-22.75;80.17;98600.97;4875695;29;20189;-78
2024/01/14 03:04:50;;;;;;;1.90;1.80;;;;;;;-22.74;80.64;98600.06;4859396;29;20053;-78
2024/01/14 03:07:17;;;;;;;1.80;1.70;;;;;;;-22.73;80.96;98595.78;4867302;29;20065;-78
2024/01/14 03:09:45;;;;;;;1.80;1.70;;;;;;;-22.71;81.09;98601.69;4807582;29;20130;-79
2024/01/14 03:12:15;;;;;;;1.70;1.60;;;;;;;-22.65;81.45;98594.66;4838025;29;20512;-79
2024/01/14 03:14:43;;;;;;;1.90;1.80;;;;;;;-22.72;81.75;98588.06;4837955;29;20053;-78
2024/01/14 03:17:12;;;;;;;1.88;1.77;;;;;;;-22.63;81.92;98602.28;4838045;29;20558;-79
2024/01/14 03:19:39;;;;;;;1.85;1.75;;;;;;;-22.63;82.11;98598.03;4857949;29;20061;-79
2024/01/14 03:22:07;;;;;;;2.10;2.00;;;;;;;-22.65;82.34;98589.56;4842152;29;20072;-79
2024/01/14 03:24:48;;;;;;;1.80;1.70;;;;;;;-22.66;82.61;98598.09;4842357;29;20053;-79
2024/01/14 03:27:19;;;;;;;1.70;1.60;;;;;;;-22.60;82.87;98577.47;4842802;29;20056;-78
2024/01/14 03:30:04;;;;;;;1.70;1.60;;;;;;;-22.65;82.81;98569.09;4843301;29;20064;-78
2024/01/14 03:32:47;;;;;;;1.80;1.70;;;;;;;-22.65;83.05;98579.31;4839019;29;20549;-78
2024/01/14 03:35:31;;;;;;;1.92;1.83;;;;;;;-22.66;83.20;98566.56;4836898;29;20056;-78
2024/01/14 03:38:04;;;;;;;1.80;1.70;;;;;;;-22.70;83.04;98557.34;4820048;29;20058;-78
2024/01/14 03:40:34;;;;;;;1.70;1.60;;;;;;;-22.73;83.22;98565.09;4808668;29;20050;-78
2024/01/14 03:43:02;;;;;;;1.88;1.77;;;;;;;-22.68;83.43;98560.66;4837817;29;20401;-79
2024/01/14 03:45:30;;;;;;;1.70;1.60;;;;;;;-22.65;83.44;98558.03;4837460;29;20140;-78
2024/01/14 03:48:03;;;;;;;1.80;1.70;;;;;;;-22.68;83.83;98545.31;4808100;29;20054;-78
2024/01/14 03:50:54;;;;;;;1.70;1.60;;;;;;;-22.70;83.45;98544.56;4755401;30;20082;-78
2024/01/14 03:53:25;;;;;;;1.80;1.70;;;;;;;-22.76;83.43;98545.56;4783098;30;20138;-78
2024/01/14 03:55:53;;;;;;;1.80;1.70;;;;;;;-22.83;83.46;98539.84;4783177;29;20055;-78
2024/01/14 03:58:20;;;;;;;1.70;1.60;;;;;;;-22.84;83.57;98533.03;4782925;29;20075;-78
2024/01/14 04:00:47;;;;;;;1.90;1.80;;;;;;;-22.85;83.81;98522.88;4782990;30;20062;-78
2024/01/14 04:03:15;;;;;;;1.80;1.70;;;;;;;-22.81;83.83;98520.19;4768199;30;20059;-78
2024/01/14 04:05:49;;;;;;;2.00;1.90;;;;;;;-22.78;83.81;98521.81;4791646;29;20440;-78
2024/01/14 04:08:16;;;;;;;1.90;1.80;;;;;;;-22.79;83.78;98515.00;4807254;29;20065;-78
2024/01/14 04:10:43;;;;;;;1.80;1.70;;;;;;;-22.84;83.71;98517.69;4822689;29;20086;-79
2024/01/14 04:13:12;;;;;;;1.80;1.70;;;;;;;-22.84;83.87;98507.47;4812161;29;20520;-79
2024/01/14 04:15:44;;;;;;;1.80;1.70;;;;;;;-22.82;83.82;98510.81;4824835;29;20068;-79
2024/01/14 04:18:15;;;;;;;1.90;1.80;;;;;;;-22.87;83.83;98507.59;4814223;29;20057;-78
2024/01/14 04:20:44;;;;;;;1.70;1.60;;;;;;;-22.91;83.85;98508.56;4843726;29;20617;-78
2024/01/14 04:23:11;;;;;;;1.98;1.88;;;;;;;-22.91;83.99;98498.31;4858963;29;20053;-79
2024/01/14 04:25:41;;;;;;;1.80;1.70;;;;;;;-22.88;83.83;98495.69;4843161;29;20053;-78
2024/01/14 04:28:10;;;;;;;1.70;1.60;;;;;;;-22.83;84.03;98495.56;4869533;29;20063;-78
2024/01/14 04:30:37;;;;;;;2.13;2.03;;;;;;;-22.79;83.94;98489.44;4884087;29;20055;-78
2024/01/14 04:33:05;;;;;;;1.70;1.60;;;;;;;-22.85;83.92;98493.03;4899785;29;20046;-78
2024/01/14 04:36:12;;;;;;;1.73;1.63;;;;;;;-22.85;83.94;98490.47;4876531;29;20148;-78
2024/01/14 04:38:48;;;;;;;1.98;1.88;;;;;;;-22.84;83.91;98479.34;4899989;29;20060;-78
2024/01/14 04:41:18;;;;;;;1.70;1.60;;;;;;;-22.83;84.02;98465.69;4853599;29;20132;-78
2024/01/14 04:43:49;;;;;;;1.70;1.60;;;;;;;-22.77;84.07;98472.31;4869421;29;20052;-78
2024/01/14 04:46:16;;;;;;;1.80;1.70;;;;;;;-22.80;84.19;98460.47;4898734;29;20053;-79
2024/01/14 04:48:50;;;;;;;1.70;1.60;;;;;;;-22.76;84.12;98477.41;4877147;29;20084;-78
2024/01/14 04:51:18;;;;;;;1.70;1.60;;;;;;;-22.72;84.34;98473.00;4831411;29;20053;-79
2024/01/14 04:53:46;;;;;;;1.80;1.70;;;;;;;-22.75;84.16;98463.72;4877047;29;20074;-78
2024/01/14 04:56:15;;;;;;;1.90;1.80;;;;;;;-22.75;84.19;98476.50;4876857;29;20060;-79
2024/01/14 05:01:59;;;;;;;1.80;1.70;;;;;;;-22.78;84.46;98458.72;4858729;29;20137;-78
2024/01/14 05:04:42;;;;;;;1.85;1.75;;;;;;;-22.77;84.50;98459.53;4842925;29;20072;-78
2024/01/14 05:07:11;;;;;;;1.70;1.60;;;;;;;-22.77;84.61;98465.47;4826490;29;20053;-78
2024/01/14 05:09:58;;;;;;;1.70;1.60;;;;;;;-22.77;84.36;98457.81;4842858;29;20053;-79
2024/01/14 05:12:30;;;;;;;1.90;1.80;;;;;;;-22.70;84.80;98457.63;4858469;29;20058;-79
2024/01/14 05:15:28;;;;;;;1.80;1.70;;;;;;;-22.55;84.63;98454.53;4507070;29;10000313;-79
2024/01/14 05:17:57;;;;;;;;;;;;;;;-22.60;84.68;98456.44;4833539;29;20049;-78
2024/01/14 05:20:33;;;;;;;1.77;1.67;;;;;;;-22.54;84.51;98459.59;4838319;29;20350;-79
2024/01/14 05:26:24;;;;;;;1.83;1.73;;;;;;;-22.33;84.51;98468.25;4845755;29;20049;-79
2024/01/14 05:29:02;;;;;;;1.88;1.77;;;;;;;-22.26;84.29;98447.56;4839456;29;20057;-78
2024/01/14 05:32:11;;;;;;;1.85;1.75;;;;;;;-22.22;84.09;98461.94;4837420;29;20057;-79
2024/01/14 05:35:01;;;;;;;1.90;1.80;;;;;;;-22.18;84.09;98448.09;4844219;29;20144;-79
2024/01/14 05:37:40;;;;;;;1.80;1.70;;;;;;;-22.16;83.97;98456.56;4846805;29;20053;-79
2024/01/14 05:40:09;;;;;;;1.80;1.70;;;;;;;-22.07;84.13;98443.44;4857865;29;20049;-79
2024/01/14 05:42:45;;;;;;;1.70;1.60;;;;;;;-21.99;83.98;98445.72;4828567;29;20067;-79
2024/01/14 05:45:16;;;;;;;1.70;1.60;;;;;;;-21.98;83.88;98443.06;4862652;29;20057;-79
2024/01/14 05:53:53;;;;;;;1.80;1.70;;;;;;;-21.76;83.76;98434.59;4862562;29;20567;-79
2024/01/14 05:56:46;;;;;;;1.95;1.85;;;;;;;-21.72;83.56;98433.56;4827829;29;20126;-78
2024/01/14 06:00:13;;;;;;;1.70;1.60;;;;;;;-21.71;83.40;98438.66;4793219;29;20122;-79
2024/01/14 06:02:50;;;;;;;1.60;1.50;;;;;;;-21.72;83.19;98434.44;4806068;29;20496;-80
2024/01/14 06:05:25;;;;;;;1.60;1.50;;;;;;;-21.69;83.37;98423.25;4774119;29;20058;-79
2024/01/14 06:07:59;;;;;;;1.73;1.63;;;;;;;-21.67;83.07;98424.84;4798289;29;20055;-82
2024/01/14 06:10:31;;;;;;;1.60;1.50;;;;;;;-21.60;83.22;98422.88;4798606;29;20061;-79
2024/01/14 06:13:15;;;;;;;1.63;1.52;;;;;;;-21.53;82.98;98421.75;4762723;30;20082;-79
2024/01/14 06:16:18;;;;;;;1.80;1.70;;;;;;;-21.52;82.70;98410.59;4752984;29;20062;-80
2024/01/14 06:19:36;;;;;;;1.70;1.60;;;;;;;-21.56;82.40;98383.44;4772968;30;20060;-81
2024/01/14 06:22:28;;;;;;;1.77;1.67;;;;;;;-21.45;82.40;98395.81;4763731;30;20059;-80
2024/01/14 06:25:05;;;;;;;1.70;1.60;;;;;;;-21.38;82.42;98407.50;4751378;30;20063;-79
2024/01/14 06:27:51;;;;;;;1.60;1.50;;;;;;;-21.33;82.16;98408.13;4775768;29;20066;-77
2024/01/14 06:30:37;;;;;;;1.60;1.50;;;;;;;-21.29;81.95;98406.25;4752190;30;20063;-78
2024/01/14 06:33:24;;;;;;;1.90;1.80;;;;;;;-21.18;82.10;98391.28;4778993;30;20057;-77
2024/01/14 06:36:17;;;;;;;1.60;1.50;;;;;;;-21.07;81.98;98395.97;4751063;30;20059;-78
2024/01/14 06:38:50;;;;;;;1.75;1.65;;;;;;;-21.02;81.86;98389.75;4749931;30;20059;-78
2024/01/14 06:42:00;;;;;;;1.60;1.50;;;;;;;-20.99;81.65;98391.34;4751277;30;20537;-79
2024/01/14 06:44:41;;;;;;;1.80;1.70;;;;;;;-21.02;81.39;98392.31;4762981;30;20135;-79
2024/01/14 06:47:32;;;;;;;1.98;1.88;;;;;;;-21.14;81.49;98380.00;4701592;30;20060;-78
2024/01/14 06:50:04;;;;;;;1.70;1.60;;;;;;;-21.06;81.30;98380.53;4758918;29;20524;-78
2024/01/14 06:52:45;;;;;;;1.85;1.75;;;;;;;-20.98;81.08;98395.59;4749135;30;20087;-78
2024/01/14 06:55:22;;;;;;;1.67;1.58;;;;;;;-20.91;80.96;98383.34;4738721;30;20064;-78
2024/01/14 06:57:59;;;;;;;1.73;1.63;;;;;;;-20.88;80.78;98371.25;4767802;30;20052;-79
2024/01/14 07:00:52;;;;;;;1.75;1.65;;;;;;;-20.88;80.33;98372.97;4735368;29;20170;-78
2024/01/14 07:03:36;;;;;;;1.60;1.50;;;;;;;-20.82;80.42;98372.72;4729791;30;20066;-78
2024/01/14 07:06:06;;;;;;;1.85;1.75;;;;;;;-20.79;80.20;98377.69;4722672;30;20063;-78
2024/01/14 07:08:43;;;;;;;1.80;1.70;;;;;;;-20.79;80.00;98375.13;4738832;30;20082;-78
2024/01/14 07:11:21;;;;;;;2.08;1.98;;;;;;;-20.70;80.08;98368.78;4781117;30;20055;-78
2024/01/14 07:14:09;;;;;;;1.65;1.55;;;;;;;-20.67;80.01;98364.34;4806927;29;20103;-78
2024/01/14 07:17:10;;;;;;;1.73;1.63;;;;;;;-20.64;79.69;98353.13;4742498;30;20116;-78
2024/01/14 07:20:13;;;;;;;2.10;2.00;;;;;;;-20.65;79.72;98341.22;4758826;30;20253;-79
2024/01/14 07:22:47;;;;;;;1.60;1.50;;;;;;;-20.58;79.68;98322.91;4768892;29;20058;-79
2024/01/14 07:25:15;;;;;;;1.80;1.70;;;;;;;-20.46;79.69;98330.94;4814564;29;20542;-79
2024/01/14 07:27:48;;;;;;;1.60;1.50;;;;;;;-20.35;79.56;98333.88;4800947;29;20130;-79
2024/01/14 07:30:28;;;;;;;1.70;1.60;;;;;;;-20.34;79.35;98338.09;4803754;29;20057;-79
2024/01/14 07:33:31;;;;;;;1.95;1.85;;;;;;;-20.32;78.95;98323.44;4785028;29;20106;-78
2024/01/14 07:36:01;;;;;;;1.70;1.60;;;;;;;-20.21;79.15;98331.47;4729119;30;20083;-78
2024/01/14 07:38:36;;;;;;;1.60;1.50;;;;;;;-20.01;79.16;98329.75;4727707;30;20052;-79
2024/01/14 07:41:23;;;;;;;1.75;1.65;;;;;;;-19.85;78.97;98329.84;4722266;30;20203;-79
2024/01/14 07:43:54;;;;;;;1.67;1.58;;;;;;;-19.85;78.77;98320.41;4706180;30;20073;-78
2024/01/14 07:46:32;;;;;;;1.70;1.60;;;;;;;-19.78;78.78;98314.09;4727604;30;20067;-79
2024/01/14 07:49:19;;;;;;;1.70;1.60;;;;;;;-19.71;78.87;98306.94;4705636;30;20057;-79
2024/01/14 07:52:01;;;;;;;1.73;1.63;;;;;;;-19.65;78.95;98306.59;4744584;30;20059;-78
2024/01/14 07:54:36;;;;;;;1.70;1.60;;;;;;;-19.54;78.68;98303.50;4752879;30;20059;-79
2024/01/14 07:57:08;;;;;;;1.83;1.73;;;;;;;-19.44;78.76;98302.16;4781395;29;20055;-79
2024/01/14 07:59:44;;;;;;;1.77;1.67;;;;;;;-19.33;78.65;98299.88;4750024;30;20071;-79
2024/01/14 08:02:16;;;;;;;1.80;1.70;;;;;;;-19.25;78.69;98297.75;4784366;29;20047;-79
2024/01/14 08:04:48;;;;;;;2.03;1.92;;;;;;;-19.14;78.23;98278.38;4812497;29;20157;-78
2024/01/14 08:10:51;;;;;;;;;;;;;;;-19.00;78.37;98270.81;4782798;29;20181;-79
2024/01/14 08:13:25;;;;;;;1.83;1.73;;;;;;;-18.92;77.85;98263.53;4776825;29;20301;-79
2024/01/14 08:16:18;;;;;;;1.50;1.40;;;;;;;-18.76;77.89;98262.72;4792915;29;20589;-78
2024/01/14 08:19:00;;;;;;;1.75;1.65;;;;;;;-18.75;77.88;98239.50;4819258;29;20050;-79
2024/01/14 08:21:29;;;;;;;1.90;1.80;;;;;;;-18.57;77.67;98266.81;4761592;30;20101;-79
2024/01/14 08:24:03;;;;;;;1.63;1.52;;;;;;;-18.50;77.65;98256.19;4760692;30;20583;-79
2024/01/14 08:26:51;;;;;;;1.52;1.42;;;;;;;-18.43;77.84;98257.50;4759117;30;20066;-79
2024/01/14 08:29:36;;;;;;;1.60;1.50;;;;;;;-18.34;77.70;98253.63;4731137;30;20060;-78
2024/01/14 08:32:34;;;;;;;1.80;1.70;;;;;;;-18.27;77.48;98239.50;4747564;30;20052;-79
2024/01/14 08:35:32;;;;;;;1.60;1.50;;;;;;;-18.25;77.29;98235.94;4725649;30;20511;-79
2024/01/14 08:38:23;;;;;;;1.85;1.75;;;;;;;-18.24;77.23;98242.75;4720199;30;20056;-79
2024/01/14 08:40:57;;;;;;;1.60;1.50;;;;;;;-18.27;77.19;98229.22;4684966;30;20054;-79
2024/01/14 08:43:48;;;;;;;1.75;1.65;;;;;;;-18.33;77.24;98234.69;4725786;29;20054;-79
2024/01/14 08:46:30;;;;;;;1.90;1.80;;;;;;;-18.28;77.29;98230.94;4750129;30;20502;-79
2024/01/14 08:49:12;;;;;;;1.88;1.77;;;;;;;-18.18;77.16;98221.78;4763395;30;20066;-79
2024/01/14 08:52:13;;;;;;;1.85;1.75;;;;;;;-18.05;76.86;98228.84;4754438;30;20176;-79
2024/01/14 08:54:56;;;;;;;1.73;1.63;;;;;;;-18.06;76.40;98217.72;4756220;30;20067;-79
2024/01/14 08:57:53;;;;;;;1.63;1.52;;;;;;;-18.04;76.18;98209.91;4734542;30;20511;-78
2024/01/14 09:00:20;;;;;;;1.55;1.45;;;;;;;-18.01;76.04;98214.88;4757480;30;20200;-78
2024/01/14 09:02:48;;;;;;;1.65;1.55;;;;;;;-18.09;76.04;98205.00;4768906;29;20980;-79
2024/01/14 09:05:22;;;;;;;1.65;1.55;;;;;;;-18.13;75.88;98195.78;4768601;29;20146;-78
2024/01/14 09:08:06;;;;;;;1.80;1.70;;;;;;;-18.07;75.72;98199.78;4779917;29;20054;-78
2024/01/14 09:10:51;;;;;;;1.50;1.40;;;;;;;-17.94;75.84;98196.41;4777367;29;20050;-78
2024/01/14 09:13:26;;;;;;;1.65;1.55;;;;;;;-18.00;75.51;98190.75;4792860;29;20046;-79
2024/01/14 09:16:24;;;;;;;1.98;1.88;;;;;;;-17.81;75.56;98183.66;4816708;29;20066;-78
2024/01/14 09:19:33;;;;;;;1.60;1.50;;;;;;;-17.86;75.32;98172.78;4794181;29;20469;-78
2024/01/14 09:22:34;;;;;;;1.40;1.30;;;;;;;-17.83;75.16;98171.78;4829667;29;20069;-78
2024/01/14 09:25:20;;;;;;;1.58;1.48;;;;;;;-17.80;75.55;98169.00;4826086;29;20099;-78
2024/01/14 09:28:07;;;;;;;1.70;1.60;;;;;;;-17.82;75.72;98170.84;4836288;29;20069;-79
2024/01/14 09:30:43;;;;;;;1.63;1.52;;;;;;;-17.79;75.63;98161.19;4806546;29;20199;-78
2024/01/14 09:33:34;;;;;;;1.80;1.70;;;;;;;-17.66;75.63;98155.31;4829996;29;20114;-79
2024/01/14 09:36:09;;;;;;;1.70;1.60;;;;;;;-17.55;75.38;98150.34;4834937;29;20066;-80
2024/01/14 09:38:54;;;;;;;1.65;1.55;;;;;;;-17.60;74.85;98153.19;4804663;29;20058;-78
2024/01/14 09:42:11;;;;;;;1.63;1.52;;;;;;;-17.56;75.14;98151.28;4803868;29;20131;-79
2024/01/14 09:44:52;;;;;;;1.75;1.65;;;;;;;-17.54;74.83;98147.69;4787376;30;20066;-79
2024/01/14 09:47:37;;;;;;;1.70;1.60;;;;;;;-17.57;74.94;98141.88;4769282;30;20418;-78
2024/01/14 09:50:15;;;;;;;1.60;1.50;;;;;;;-17.52;75.10;98135.53;4755142;30;20086;-78
2024/01/14 09:53:01;;;;;;;1.63;1.52;;;;;;;-17.53;75.11;98128.72;4752942;30;20076;-79
2024/01/14 09:55:34;;;;;;;1.67;1.58;;;;;;;-17.42;75.41;98137.56;4713188;30;20091;-78
2024/01/14 09:58:12;;;;;;;1.50;1.40;;;;;;;-17.40;75.52;98122.81;4775438;29;20050;-79
2024/01/14 10:00:40;;;;;;;1.70;1.60;;;;;;;-17.36;75.42;98114.00;4807555;29;20091;-78
2024/01/14 10:03:14;;;;;;;1.40;1.30;;;;;;;-17.28;75.47;98127.25;4789894;29;20058;-79
2024/01/14 10:05:53;;;;;;;1.67;1.58;;;;;;;-17.29;75.41;98118.69;4788809;29;20071;-79
2024/01/14 10:08:34;;;;;;;1.70;1.60;;;;;;;-17.30;75.34;98113.63;4744562;30;20055;-78
2024/01/14 10:11:10;;;;;;;1.60;1.50;;;;;;;-17.29;75.47;98099.78;4727889;30;20471;-78
2024/01/14 10:14:13;;;;;;;1.50;1.40;;;;;;;-17.27;75.72;98095.38;4658243;30;20054;-78
2024/01/14 10:16:44;;;;;;;1.50;1.40;;;;;;;-17.21;75.66;98099.31;4698617;30;20065;-78
2024/01/14 10:19:37;;;;;;;1.60;1.50;;;;;;;-17.23;75.96;98089.13;4770931;30;20059;-79
2024/01/14 10:22:19;;;;;;;1.40;1.30;;;;;;;-17.26;76.00;98073.81;4700563;30;20061;-78
2024/01/14 10:24:55;;;;;;;1.40;1.30;;;;;;;-17.23;76.05;98073.63;4703963;30;20081;-79
2024/01/14 10:27:29;;;;;;;1.90;1.80;;;;;;;-17.17;76.19;98078.41;4666283;30;20512;-78
2024/01/14 10:30:23;;;;;;;1.75;1.65;;;;;;;-17.13;76.33;98068.75;4677106;30;20450;-79
2024/01/14 10:32:56;;;;;;;1.75;1.65;;;;;;;-17.11;76.42;98078.03;4696836;30;20519;-79
2024/01/14 10:35:45;;;;;;;1.40;1.30;;;;;;;-17.08;76.52;98064.94;4686068;30;20057;-79
2024/01/14 10:38:23;;;;;;;1.63;1.52;;;;;;;-17.06;76.52;98059.69;4683054;30;20046;-79
2024/01/14 10:40:59;;;;;;;1.83;1.73;;;;;;;-17.04;76.75;98052.66;4696533;30;20144;-78
2024/01/14 10:43:50;;;;;;;1.70;1.60;;;;;;;-17.03;76.85;98066.44;4702022;30;20053;-78
2024/01/14 10:46:24;;;;;;;1.80;1.70;;;;;;;-16.98;76.73;98056.66;4745938;30;20056;-78
2024/01/14 10:49:16;;;;;;;1.65;1.55;;;;;;;-16.86;77.19;98058.44;4697137;30;20063;-78
2024/01/14 10:52:18;;;;;;;1.50;1.40;;;;;;;-16.80;77.25;98055.47;4698912;30;20080;-78
2024/01/14 10:55:01;;;;;;;1.58;1.48;;;;;;;-16.86;77.35;98043.78;4699215;30;20185;-79
2024/01/14 10:57:51;;;;;;;1.70;1.60;;;;;;;-16.72;77.74;98042.06;4719621;30;20048;-77
2024/01/14 11:00:36;;;;;;;1.70;1.60;;;;;;;-16.73;77.55;98040.38;4712996;30;20543;-78
2024/01/14 11:03:33;;;;;;;1.50;1.40;;;;;;;-16.84;77.73;98020.44;4709731;30;20821;-77
2024/01/14 11:06:32;;;;;;;1.70;1.60;;;;;;;-16.87;77.67;98026.63;4681361;30;20188;-78
2024/01/14 11:09:16;;;;;;;1.60;1.50;;;;;;;-16.77;77.77;98034.59;4687926;30;20061;-78
2024/01/14 11:12:06;;;;;;;1.50;1.40;;;;;;;-16.70;78.01;98033.28;4712981;30;20056;-78
2024/01/14 11:15:08;;;;;;;1.70;1.60;;;;;;;-16.73;77.84;98022.31;4690198;30;20065;-78
2024/01/14 11:18:06;;;;;;;1.80;1.70;;;;;;;-16.79;77.76;98013.25;4665593;30;20058;-77
2024/01/14 11:20:37;;;;;;;1.45;1.35;;;;;;;-16.82;77.87;98018.59;4692651;30;20066;-79
2024/01/14 11:23:54;;;;;;;1.65;1.55;;;;;;;-16.84;78.05;98016.09;4678821;30;20117;-77
2024/01/14 11:26:36;;;;;;;1.52;1.42;;;;;;;-16.84;78.03;98012.69;4729637;30;20073;-77
2024/01/14 11:29:40;;;;;;;1.65;1.55;;;;;;;-16.88;78.31;98006.91;4745956;30;20139;-77
2024/01/14 11:32:19;;;;;;;1.45;1.35;;;;;;;-16.89;78.38;98005.25;4705320;30;20057;-77
2024/01/14 11:35:11;;;;;;;1.45;1.35;;;;;;;-16.92;78.28;98005.44;4690619;30;20443;-78
2024/01/14 11:37:50;;;;;;;1.60;1.50;;;;;;;-16.88;78.53;97993.19;4686048;30;20061;-78
2024/01/14 11:40:29;;;;;;;1.50;1.40;;;;;;;-16.93;78.55;97990.06;4708848;30;20064;-77
2024/01/14 11:43:08;;;;;;;1.53;1.43;;;;;;;-16.89;78.80;97974.28;4730980;30;20090;-78
2024/01/14 11:45:53;;;;;;;1.80;1.70;;;;;;;-16.90;78.79;97969.22;4732488;30;20064;-77
2024/01/14 11:48:36;;;;;;;1.30;1.20;;;;;;;-16.92;78.77;97981.41;4752260;30;20511;-77
2024/01/14 11:51:22;;;;;;;1.50;1.40;;;;;;;-16.93;78.73;97978.00;4753914;30;20055;-77
2024/01/14 11:53:54;;;;;;;1.60;1.50;;;;;;;-16.93;79.00;97983.16;4771998;30;20047;-78
2024/01/14 11:56:29;;;;;;;1.63;1.52;;;;;;;-16.88;78.95;97969.97;4770327;30;20062;-77
2024/01/14 11:59:00;;;;;;;1.60;1.50;;;;;;;-16.84;78.92;97981.72;4755205;30;20181;-77
2024/01/14 12:01:30;;;;;;;1.38;1.27;;;;;;;-16.83;79.30;97973.91;4751468;30;20419;-77
2024/01/14 12:04:06;;;;;;;1.50;1.40;;;;;;;-16.81;79.23;97986.69;4717904;30;20057;-77
2024/01/14 12:06:47;;;;;;;1.50;1.40;;;;;;;-16.82;79.40;97993.59;4732940;30;20075;-77
2024/01/14 12:09:28;;;;;;;1.75;1.65;;;;;;;-16.82;79.17;97964.38;4748482;30;20522;-77
2024/01/14 12:12:04;;;;;;;1.55;1.45;;;;;;;-16.78;79.36;97986.50;4682066;30;20499;-77
2024/01/14 12:14:47;;;;;;;1.42;1.33;;;;;;;-16.75;79.44;97960.47;4725567;30;20062;-77
2024/01/14 12:17:20;;;;;;;1.67;1.58;;;;;;;-16.73;79.38;97953.44;4699227;30;20444;-77
2024/01/14 12:20:04;;;;;;;1.60;1.50;;;;;;;-16.72;79.27;97960.25;4734076;30;20066;-77
2024/01/14 12:22:42;;;;;;;1.55;1.45;;;;;;;-16.76;79.57;97953.63;4776284;29;20553;-77
2024/01/14 12:26:05;;;;;;;1.42;1.33;;;;;;;-16.63;79.81;97953.69;4794398;29;20059;-77
2024/01/14 12:28:39;;;;;;;1.40;1.30;;;;;;;-16.58;79.73;97971.44;4807236;29;20493;-77
2024/01/14 12:31:19;;;;;;;2.03;1.92;;;;;;;-16.58;79.87;97945.59;4771918;30;20059;-76